createdAt,value
2023-03-30T04:01:37.492Z,98532.97
2023-03-30T04:04:04.369Z,98524.75
2023-03-30T04:06:30.917Z,98528.06
2023-03-30T04:08:57.489Z,98520.00
2023-03-30T04:11:41.593Z,98539.59
2023-03-30T04:14:08.107Z,98539.59
2023-03-30T04:16:58.069Z,98515.84
2023-03-30T04:19:54.622Z,98461.44
2023-03-30T04:22:33.671Z,98449.63
2023-03-30T04:25:29.045Z,98444.91
2023-03-30T04:28:14.534Z,98422.84
2023-03-30T04:31:19.840Z,98399.38
2023-03-30T04:34:04.930Z,98397.97
2023-03-30T04:36:55.815Z,98384.56
2023-03-30T04:39:41.474Z,98387.44
2023-03-30T04:42:34.080Z,98384.44
2023-03-30T04:45:20.564Z,98381.25
2023-03-30T04:48:05.817Z,98391.25
2023-03-30T04:50:51.894Z,98389.13
2023-03-30T04:53:34.368Z,98405.47
2023-03-30T04:56:19.729Z,98399.66
2023-03-30T04:58:58.860Z,98393.56
2023-03-30T05:01:45.806Z,98392.72
2023-03-30T05:04:40.802Z,98386.69
2023-03-30T05:07:21.594Z,98370.75
2023-03-30T05:10:06.342Z,98371.44
2023-03-30T05:12:45.147Z,98364.66
2023-03-30T05:15:17.510Z,98360.88
2023-03-30T05:17:56.863Z,98356.44
2023-03-30T05:20:43.762Z,98347.69
2023-03-30T05:23:33.548Z,98347.31
2023-03-30T05:26:19.048Z,98352.66
2023-03-30T05:29:21.174Z,98363.19
2023-03-30T05:32:16.624Z,98380.41
2023-03-30T05:34:52.698Z,98398.16
2023-03-30T05:37:29.561Z,98416.59
2023-03-30T05:40:13.255Z,98424.09
2023-03-30T05:42:49.636Z,98438.81
2023-03-30T05:45:30.321Z,98429.78
2023-03-30T05:48:23.526Z,98421.06
2023-03-30T05:51:06.008Z,98450.16
2023-03-30T05:53:46.003Z,98440.53
2023-03-30T05:56:40.175Z,98439.38
2023-03-30T05:59:26.296Z,98440.78
2023-03-30T10:31:24.401Z,98437.00
2023-03-30T10:34:00.622Z,98426.00
2023-03-30T10:36:34.959Z,98428.50
2023-03-30T10:39:32.514Z,98433.41
2023-03-30T10:42:04.709Z,98425.91
2023-03-30T10:44:33.077Z,98441.13
2023-03-30T10:47:16.303Z,98430.22
2023-03-30T10:49:49.201Z,98430.91
2023-03-30T10:52:28.998Z,98422.59
2023-03-30T10:55:17.169Z,98434.59
2023-03-30T10:58:03.054Z,98416.22
2023-03-30T11:00:34.983Z,98419.00
2023-03-30T11:03:36.465Z,98422.03
2023-03-30T11:06:18.202Z,98415.91
2023-03-30T11:08:49.197Z,98409.00
2023-03-30T11:11:51.396Z,98397.38
2023-03-30T11:14:36.785Z,98409.03
2023-03-30T11:17:09.130Z,98406.38
2023-03-30T11:19:45.358Z,98398.38
2023-03-30T11:22:41.472Z,98406.47
2023-03-30T11:25:21.220Z,98398.53
2023-03-30T11:28:43.341Z,98402.38
2023-03-30T11:31:40.027Z,98408.34
2023-03-30T11:34:12.709Z,98410.25
2023-03-30T11:36:56.346Z,98389.88
2023-03-30T11:39:32.617Z,98391.91
2023-03-30T11:42:13.952Z,98412.75
2023-03-30T11:44:41.209Z,98373.81
2023-03-30T11:47:47.114Z,98385.50
2023-03-30T11:50:23.539Z,98401.44
2023-03-30T11:53:02.255Z,98382.03
2023-03-30T11:55:52.339Z,98392.78
2023-03-30T11:58:25.652Z,98389.59
2023-03-30T12:01:03.769Z,98397.09
2023-03-30T12:03:36.810Z,98380.84
2023-03-30T12:06:29.671Z,98377.59
2023-03-30T12:09:17.162Z,98388.09
2023-03-30T12:11:49.836Z,98386.72
2023-03-30T12:14:42.684Z,98385.88
2023-03-30T12:17:26.743Z,98387.06
2023-03-30T12:20:05.666Z,98390.13
2023-03-30T12:22:46.593Z,98389.72
2023-03-30T12:25:44.213Z,98371.75
2023-03-30T12:28:15.718Z,98383.13
2023-03-30T12:30:53.715Z,98376.69
2023-03-30T12:33:34.648Z,98382.72
2023-03-30T12:36:33.710Z,98375.38
2023-03-30T12:39:02.758Z,98352.16
2023-03-30T12:41:41.457Z,98347.75
2023-03-30T12:44:45.852Z,98349.06
2023-03-30T12:47:31.075Z,98339.03
2023-03-30T12:50:27.678Z,98327.63
2023-03-30T12:53:07.832Z,98329.72
2023-03-30T12:56:01.087Z,98326.13
2023-03-30T12:58:46.562Z,98329.63
2023-03-30T13:01:16.553Z,98336.13
2023-03-30T13:03:52.888Z,98347.91
2023-03-30T13:06:31.901Z,98353.78
2023-03-30T13:09:07.814Z,98362.25
2023-03-30T13:12:03.738Z,98386.94
2023-03-30T13:14:30.301Z,98410.63
2023-03-30T13:16:56.961Z,98427.78
2023-03-30T13:19:32.885Z,98429.56
2023-03-30T13:22:03.225Z,98438.88
2023-03-30T13:24:32.809Z,98455.25
2023-03-30T13:27:14.048Z,98443.59
2023-03-30T13:29:42.650Z,98434.00
2023-03-30T13:32:20.594Z,98438.16
2023-03-30T13:35:05.525Z,98430.13
2023-03-30T13:38:11.365Z,98434.84
2023-03-30T13:41:05.197Z,98439.53
2023-03-30T13:43:41.907Z,98478.88
2023-03-30T13:46:35.380Z,98544.56
2023-03-30T13:49:08.085Z,98508.72
2023-03-30T13:51:38.169Z,98505.47
2023-03-30T13:54:10.809Z,98502.53
2023-03-30T13:56:41.241Z,98486.38
2023-03-30T13:59:13.497Z,98489.47
2023-03-30T14:01:41.209Z,98483.56
2023-03-30T14:04:11.156Z,98488.81
2023-03-30T14:06:47.028Z,98491.59
2023-03-30T14:09:20.249Z,98495.72
2023-03-30T14:11:52.111Z,98486.22
2023-03-30T14:14:37.630Z,98487.06
2023-03-30T14:17:15.432Z,98496.06
2023-03-30T14:19:58.550Z,98492.56
2023-03-30T14:22:28.000Z,98486.75
2023-03-30T14:25:01.598Z,98494.66
2023-03-30T14:27:38.816Z,98484.81
2023-03-30T14:30:19.783Z,98473.59
2023-03-30T14:32:46.654Z,98482.47
2023-03-30T14:35:18.421Z,98500.00
2023-03-30T14:37:51.661Z,98495.06
2023-03-30T14:40:21.976Z,98487.25
2023-03-30T14:42:51.812Z,98490.81
2023-03-30T14:45:19.249Z,98478.59
2023-03-30T14:47:47.819Z,98484.63
2023-03-30T14:50:18.663Z,98480.13
2023-03-30T14:52:47.077Z,98475.75
2023-03-30T14:55:21.233Z,98477.34
2023-03-30T14:57:54.338Z,98477.78
2023-03-30T15:00:31.800Z,98459.69
2023-03-30T15:03:02.879Z,98474.69
2023-03-30T15:05:36.216Z,98482.31
2023-03-30T15:08:10.248Z,98479.56
2023-03-30T15:10:50.174Z,98478.78
2023-03-30T15:13:47.616Z,98484.72
2023-03-30T15:16:30.359Z,98489.59
2023-03-30T15:19:32.932Z,98494.91
2023-03-30T15:22:29.515Z,98500.41
2023-03-30T15:25:05.407Z,98503.28
2023-03-30T15:27:36.192Z,98509.91
2023-03-30T15:30:04.979Z,98508.94
2023-03-30T15:32:36.365Z,98503.13
2023-03-30T15:35:23.107Z,98510.31
2023-03-30T15:38:12.643Z,98514.56
2023-03-30T15:40:42.453Z,98505.59
2023-03-30T15:43:23.585Z,98492.66
2023-03-30T15:46:02.262Z,98495.50
2023-03-30T15:48:42.908Z,98504.41
2023-03-30T15:51:39.292Z,98503.00
2023-03-30T15:54:15.213Z,98493.97
2023-03-30T15:56:51.962Z,98500.31
2023-03-30T15:59:21.774Z,98490.31
2023-03-30T16:01:54.705Z,98475.19
2023-03-30T16:04:25.671Z,98464.75
2023-03-30T16:06:52.935Z,98451.16
2023-03-30T16:09:19.838Z,98470.56
2023-03-30T16:11:47.035Z,98468.25
2023-03-30T16:14:17.812Z,98468.25
2023-03-30T16:16:44.702Z,98467.41
2023-03-30T16:19:18.684Z,98461.41
2023-03-30T16:21:48.590Z,98451.88
2023-03-30T16:24:15.836Z,98452.72
2023-03-30T16:26:42.806Z,98461.03
2023-03-30T16:29:21.573Z,98449.34
2023-03-30T16:31:56.510Z,98452.63
2023-03-30T16:34:23.689Z,98443.69
2023-03-30T16:36:50.524Z,98456.22
2023-03-30T16:39:21.626Z,98445.13
2023-03-30T16:41:49.584Z,98451.25
2023-03-30T16:44:17.382Z,98442.31
2023-03-30T16:46:44.594Z,98441.81
2023-03-30T16:49:22.809Z,98453.09
2023-03-30T16:51:49.761Z,98443.88
2023-03-30T16:54:29.594Z,98459.50
2023-03-30T16:56:57.849Z,98460.63
2023-03-30T16:59:27.459Z,98452.50
2023-03-30T17:01:54.074Z,98457.06
2023-03-30T17:04:20.773Z,98456.88
2023-03-30T17:06:47.927Z,98461.38
2023-03-30T17:09:17.208Z,98459.41
2023-03-30T17:11:45.246Z,98455.72
2023-03-30T17:14:12.487Z,98461.34
2023-03-30T17:20:24.631Z,98473.78
2023-03-30T17:23:04.101Z,98483.91
2023-03-30T17:25:36.054Z,98473.44
2023-03-30T17:28:08.723Z,98480.69
2023-03-30T17:30:41.958Z,98493.56
2023-03-30T17:33:14.913Z,98488.53
2023-03-30T17:35:48.917Z,98488.00
2023-03-30T17:38:16.090Z,98501.75
2023-03-30T17:40:48.562Z,98501.00
2023-03-30T17:43:15.669Z,98485.38
2023-03-30T17:45:46.333Z,98491.00
2023-03-30T17:48:16.396Z,98488.94
2023-03-30T17:50:46.412Z,98494.97
2023-03-30T17:53:29.616Z,98495.53
2023-03-30T17:55:59.566Z,98498.97
2023-03-30T17:58:32.010Z,98504.03
2023-03-30T18:01:01.513Z,98506.06
2023-03-30T18:03:32.284Z,98504.03
2023-03-30T18:06:01.918Z,98505.97
2023-03-30T18:08:29.567Z,98502.59
2023-03-30T18:10:58.645Z,98506.59
2023-03-30T18:13:29.694Z,98505.91
2023-03-30T18:15:58.952Z,98501.00
2023-03-30T18:18:29.443Z,98506.47
2023-03-30T18:21:05.090Z,98497.66
2023-03-30T18:23:34.956Z,98507.94
2023-03-30T18:26:09.208Z,98508.53
2023-03-30T18:28:39.300Z,98502.94
2023-03-30T18:31:06.463Z,98520.00
2023-03-30T18:33:38.478Z,98519.50
2023-03-30T18:36:09.075Z,98525.78
2023-03-30T18:38:36.566Z,98529.06
2023-03-30T18:41:03.881Z,98535.38
2023-03-30T18:43:31.149Z,98540.03
2023-03-30T18:46:12.325Z,98536.31
2023-03-30T18:48:47.776Z,98543.88
2023-03-30T18:51:32.870Z,98544.94
2023-03-30T18:54:31.811Z,98548.53
2023-03-30T18:58:22.392Z,98548.56
2023-03-30T19:00:19.452Z,98552.19
2023-03-30T19:02:46.640Z,98548.97
2023-03-30T19:05:14.144Z,98544.78
2023-03-30T19:07:41.013Z,98545.31
2023-03-30T19:10:11.232Z,98547.19
2023-03-30T19:12:38.529Z,98547.16
2023-03-30T19:15:06.124Z,98560.25
2023-03-30T19:17:32.835Z,98553.28
2023-03-30T19:19:59.577Z,98558.38
2023-03-30T19:22:26.460Z,98563.72
2023-03-30T19:24:53.036Z,98563.03
2023-03-30T19:27:20.356Z,98556.56
2023-03-30T19:29:47.123Z,98556.22
2023-03-30T19:32:14.011Z,98551.97
2023-03-30T19:34:40.852Z,98546.91
2023-03-30T19:37:08.772Z,98549.97
2023-03-30T19:39:35.524Z,98543.66
2023-03-30T19:42:02.297Z,98543.06
2023-03-30T19:44:28.914Z,98537.97
2023-03-30T19:46:58.804Z,98537.28
2023-03-30T19:49:25.415Z,98540.50
2023-03-30T19:51:52.941Z,98542.63
2023-03-30T19:54:20.235Z,98536.28
2023-03-30T19:56:46.863Z,98537.28
2023-03-30T19:59:14.381Z,98539.25
2023-03-30T20:01:41.078Z,98527.44
2023-03-30T20:04:10.603Z,98529.47
2023-03-30T20:06:37.294Z,98531.50
2023-03-30T20:09:04.826Z,98531.16
2023-03-30T20:11:31.646Z,98532.09
2023-03-30T20:13:58.579Z,98524.84
2023-03-30T20:16:26.252Z,98525.94
2023-03-30T20:18:54.166Z,98522.72
2023-03-30T20:21:23.234Z,98528.66
2023-03-30T20:23:52.786Z,98530.84
2023-03-30T20:26:19.646Z,98529.09
2023-03-30T20:28:47.468Z,98524.56
2023-03-30T20:31:14.845Z,98522.56
2023-03-30T20:33:41.624Z,98517.78
2023-03-30T20:36:08.741Z,98513.88
2023-03-30T20:38:35.681Z,98527.66
2023-03-30T20:41:06.206Z,98521.81
2023-03-30T20:43:40.549Z,98524.44
2023-03-30T20:46:14.636Z,98508.47
2023-03-30T20:48:41.674Z,98507.00
2023-03-30T20:51:14.113Z,98510.03
2023-03-30T20:53:42.378Z,98497.06
2023-03-30T20:56:11.047Z,98500.44
2023-03-30T20:58:39.123Z,98507.31
2023-03-30T22:02:41.594Z,98450.34
2023-03-30T22:05:08.417Z,98448.41
2023-03-30T22:07:35.058Z,98462.72
2023-03-30T22:10:01.644Z,98461.31
2023-03-30T22:12:28.314Z,98459.75
2023-03-30T22:14:54.844Z,98454.38
2023-03-30T22:17:21.492Z,98460.66
2023-03-30T22:19:51.910Z,98448.75
2023-03-30T22:22:18.548Z,98449.34
2023-03-30T22:24:45.363Z,98453.94
2023-03-30T22:27:13.091Z,98442.81
2023-03-30T22:29:39.643Z,98436.38
2023-03-30T22:32:06.567Z,98438.94
2023-03-30T22:34:33.614Z,98434.81
2023-03-30T22:37:00.543Z,98438.47
2023-03-30T22:39:27.964Z,98437.31
2023-03-30T22:41:54.495Z,98432.66
2023-03-30T22:44:21.430Z,98431.06
2023-03-30T22:46:47.982Z,98424.03
2023-03-30T22:49:14.552Z,98423.38
2023-03-30T22:51:52.469Z,98425.34
2023-03-30T22:54:20.255Z,98416.84
2023-03-30T22:56:47.838Z,98416.09
2023-03-30T22:59:14.763Z,98418.22
2023-03-30T23:01:41.445Z,98412.59
2023-03-30T23:04:08.013Z,98412.53
2023-03-30T23:06:36.354Z,98408.50
2023-03-30T23:09:04.971Z,98406.69
2023-03-30T23:11:32.939Z,98403.72
2023-03-30T23:14:06.009Z,98406.28
2023-03-30T23:16:37.508Z,98396.16
2023-03-30T23:19:05.901Z,98399.69
2023-03-30T23:21:34.299Z,98396.88
2023-03-30T23:24:03.179Z,98399.34
2023-03-30T23:26:30.021Z,98391.66
2023-03-30T23:29:00.255Z,98385.13
2023-03-30T23:31:26.909Z,98395.03
2023-03-30T23:33:55.330Z,98382.88
2023-03-30T23:36:23.831Z,98379.44
2023-03-30T23:38:56.955Z,98379.28
2023-03-30T23:41:23.834Z,98375.09
2023-03-30T23:43:51.454Z,98372.69
2023-03-30T23:46:19.710Z,98368.19
2023-03-30T23:48:46.746Z,98366.22
2023-03-30T23:51:13.488Z,98357.34
2023-03-30T23:53:41.572Z,98361.28
2023-03-30T23:56:12.754Z,98355.50
2023-03-30T23:58:40.351Z,98351.25
